Time;durP1;ratioP1;P1;durP2;ratioP2;P2;SDS_P1;SDS_P2;PMS_P1;PMS_P2;Temp;Humidity;BMP_temperature;BMP_pressure;BME280_temperature;BME280_humidity;BME280_pressure;Samples;Min_cycle;Max_cycle;Signal;HPM_P1;HPM_P2
2022/02/20 00:00:51;;;;;;;16.35;3.10;;;;;;;6.81;100.00;97724.28;5008897;28;20034;-56
2022/02/20 00:03:17;;;;;;;10.20;2.55;;;;;;;6.56;92.28;97725.88;5010706;28;20029;-55
2022/02/20 00:05:43;;;;;;;16.02;3.10;;;;;;;6.44;88.78;97722.78;5008367;28;20048;-54
2022/02/20 00:08:09;;;;;;;10.48;2.55;;;;;;;6.52;88.07;97728.59;5010408;28;20026;-58
2022/02/20 00:10:34;;;;;;;16.20;2.95;;;;;;;6.38;89.15;97716.03;5010748;28;20041;-57
2022/02/20 00:13:01;;;;;;;17.77;3.30;;;;;;;7.03;90.83;97727.91;5007455;28;20046;-56
2022/02/20 00:15:26;;;;;;;19.77;3.65;;;;;;;6.50;99.20;97712.25;5007191;28;20041;-57
2022/02/20 00:17:54;;;;;;;14.02;2.53;;;;;;;6.80;100.00;97715.69;5009078;28;20017;-57
2022/02/20 00:20:20;;;;;;;18.33;3.17;;;;;;;7.07;100.00;97713.94;5007967;28;20025;-55
2022/02/20 00:22:46;;;;;;;16.50;2.80;;;;;;;6.79;100.00;97713.13;5010077;28;20507;-56
2022/02/20 00:25:12;;;;;;;16.23;2.97;;;;;;;7.04;100.00;97716.66;5008748;28;20103;-55
2022/02/20 00:27:38;;;;;;;13.73;2.80;;;;;;;7.07;100.00;97726.91;5010117;28;20395;-58
2022/02/20 00:30:03;;;;;;;13.57;2.85;;;;;;;7.19;100.00;97725.69;5009026;28;20034;-56
2022/02/20 00:32:29;;;;;;;14.07;2.83;;;;;;;7.13;100.00;97725.88;5009877;28;20544;-56
2022/02/20 00:34:54;;;;;;;16.63;3.10;;;;;;;7.15;100.00;97742.28;5007782;28;20120;-55
2022/02/20 00:37:20;;;;;;;11.77;2.58;;;;;;;6.35;100.00;97735.09;5010863;28;20037;-57
2022/02/20 00:39:45;;;;;;;14.20;2.60;;;;;;;6.88;100.00;97731.00;5010387;28;20038;-55
2022/02/20 00:42:10;;;;;;;18.80;3.10;;;;;;;6.39;100.00;97727.25;5007111;28;20042;-55
2022/02/20 00:44:36;;;;;;;15.32;2.97;;;;;;;6.50;100.00;97731.22;5008272;28;20672;-54
2022/02/20 00:47:02;;;;;;;19.90;3.05;;;;;;;5.83;100.00;97731.31;5008093;28;20045;-53
2022/02/20 00:49:27;;;;;;;10.68;2.38;;;;;;;5.78;100.00;97728.84;5010704;28;20037;-54
2022/02/20 00:51:52;;;;;;;18.30;3.10;;;;;;;5.25;100.00;97732.78;5007911;28;20033;-53
2022/02/20 00:54:18;;;;;;;11.63;2.47;;;;;;;5.40;100.00;97738.44;5008839;28;20064;-53
2022/02/20 00:56:43;;;;;;;13.95;2.55;;;;;;;5.38;100.00;97736.75;5008639;28;20057;-54
2022/02/20 00:59:08;;;;;;;16.00;2.90;;;;;;;5.69;100.00;97733.41;5008836;28;20573;-54
2022/02/20 01:01:34;;;;;;;13.02;2.88;;;;;;;5.62;100.00;97743.06;5008025;28;20096;-54
2022/02/20 01:04:00;;;;;;;12.48;2.53;;;;;;;6.09;100.00;97727.22;5010715;28;20033;-53
2022/02/20 01:06:26;;;;;;;14.70;2.50;;;;;;;5.19;100.00;97734.63;5009507;28;20038;-54
2022/02/20 01:08:52;;;;;;;11.07;2.50;;;;;;;5.80;100.00;97701.19;5008010;28;20029;-53
2022/02/20 01:11:18;;;;;;;18.00;3.28;;;;;;;5.54;100.00;97740.66;5007371;28;20037;-53
2022/02/20 01:13:45;;;;;;;11.93;2.65;;;;;;;5.74;100.00;97690.16;5007024;28;20025;-53
2022/02/20 01:16:10;;;;;;;12.43;2.80;;;;;;;5.02;100.00;97721.25;5007575;28;20896;-54
2022/02/20 01:18:36;;;;;;;17.00;3.13;;;;;;;5.97;100.00;97705.97;5010692;28;20021;-55
2022/02/20 01:21:01;;;;;;;14.75;2.75;;;;;;;5.58;100.00;97700.06;5011342;28;20113;-56
2022/02/20 01:23:27;;;;;;;14.90;2.88;;;;;;;5.49;100.00;97719.22;5011261;28;20152;-55
2022/02/20 01:25:52;;;;;;;14.98;2.80;;;;;;;5.15;100.00;97701.97;5007825;28;20120;-55
2022/02/20 01:28:18;;;;;;;15.70;3.13;;;;;;;5.36;100.00;97695.41;5009428;28;20109;-55
2022/02/20 01:30:44;;;;;;;15.85;3.00;;;;;;;5.03;100.00;97695.34;5013402;28;20040;-56
2022/02/20 01:33:09;;;;;;;14.95;3.13;;;;;;;5.45;100.00;97680.56;5012286;28;20029;-53
2022/02/20 01:35:35;;;;;;;17.27;3.05;;;;;;;5.03;100.00;97702.25;5012024;28;20034;-55
2022/02/20 01:38:00;;;;;;;14.57;2.83;;;;;;;5.23;100.00;97673.34;5015646;28;20029;-56
2022/02/20 01:40:30;;;;;;;12.88;2.70;;;;;;;5.30;100.00;97699.91;5013819;28;20562;-55
2022/02/20 01:42:56;;;;;;;13.98;2.78;;;;;;;5.40;100.00;97691.00;5010271;28;20101;-55
2022/02/20 01:45:21;;;;;;;12.10;2.53;;;;;;;5.72;100.00;97666.06;5013608;28;20025;-56
2022/02/20 01:47:47;;;;;;;17.83;3.10;;;;;;;4.79;100.00;97686.41;5012913;28;20040;-56
2022/02/20 01:50:15;;;;;;;22.73;3.10;;;;;;;5.40;100.00;97659.97;5014107;28;20061;-55
2022/02/20 01:52:40;;;;;;;15.30;2.97;;;;;;;5.60;100.00;97678.41;5014462;28;20026;-56
2022/02/20 01:55:09;;;;;;;18.90;3.00;;;;;;;5.63;100.00;97669.75;5011801;28;20037;-55
2022/02/20 01:57:39;;;;;;;15.95;3.03;;;;;;;5.53;100.00;97642.41;5012172;28;20059;-56
2022/02/20 02:00:08;;;;;;;22.00;3.60;;;;;;;5.59;100.00;97656.03;5010988;28;20408;-54
2022/02/20 02:02:33;;;;;;;22.05;3.45;;;;;;;5.15;100.00;97660.59;4990909;28;20397;-57
2022/02/20 02:04:59;;;;;;;17.15;3.30;;;;;;;5.33;100.00;97667.06;4990385;28;20049;-54
2022/02/20 02:07:27;;;;;;;15.73;3.15;;;;;;;5.61;100.00;97684.47;5013394;28;20094;-55
2022/02/20 02:09:52;;;;;;;14.77;2.80;;;;;;;5.77;100.00;97665.03;5012959;28;20524;-55
2022/02/20 02:12:18;;;;;;;14.75;2.70;;;;;;;5.90;100.00;97681.09;5010625;28;20045;-55
2022/02/20 02:14:52;;;;;;;18.58;3.28;;;;;;;5.27;100.00;97668.94;5012852;28;20032;-54
2022/02/20 02:17:18;;;;;;;14.55;2.90;;;;;;;5.70;100.00;97679.03;5011549;28;20045;-54
2022/02/20 02:19:43;;;;;;;11.07;2.72;;;;;;;5.26;100.00;97675.03;5012703;28;20022;-55
2022/02/20 02:22:08;;;;;;;14.55;2.83;;;;;;;5.89;100.00;97663.84;5012893;28;20671;-53
2022/02/20 02:24:34;;;;;;;11.98;2.50;;;;;;;6.02;100.00;97674.75;5013406;28;20042;-55
2022/02/20 02:27:01;;;;;;;15.85;2.80;;;;;;;5.88;100.00;97669.94;5010005;28;20068;-53
2022/02/20 02:29:27;;;;;;;14.18;2.60;;;;;;;5.68;100.00;97674.78;5012924;28;20021;-53
2022/02/20 02:31:52;;;;;;;11.57;2.42;;;;;;;5.66;100.00;97677.44;5011206;28;20034;-54
2022/02/20 02:34:20;;;;;;;16.83;2.80;;;;;;;5.96;100.00;97657.66;5013927;28;20161;-53
2022/02/20 02:36:49;;;;;;;13.77;2.80;;;;;;;6.12;100.00;97664.97;5011032;28;20077;-55
2022/02/20 02:39:15;;;;;;;13.77;2.90;;;;;;;5.40;100.00;97652.22;5011245;28;20022;-55
2022/02/20 02:41:41;;;;;;;11.57;2.40;;;;;;;6.02;100.00;97648.00;5010123;28;20041;-53
2022/02/20 02:44:06;;;;;;;17.38;3.00;;;;;;;5.92;100.00;97637.06;5010968;28;20067;-55
2022/02/20 02:46:32;;;;;;;13.40;2.58;;;;;;;6.00;100.00;97642.03;5011112;28;20475;-56
2022/02/20 02:48:58;;;;;;;13.10;2.63;;;;;;;5.73;100.00;97641.88;5012516;28;20024;-53
2022/02/20 02:51:23;;;;;;;16.80;2.63;;;;;;;5.79;100.00;97644.31;5010980;28;20044;-54
2022/02/20 02:53:49;;;;;;;16.50;3.20;;;;;;;5.96;100.00;97634.34;5012550;28;20105;-55
2022/02/20 02:56:14;;;;;;;17.05;3.10;;;;;;;5.94;100.00;97625.75;5010085;28;20042;-54
2022/02/20 02:58:42;;;;;;;14.77;2.58;;;;;;;5.94;100.00;97640.44;5014351;28;20026;-56
2022/02/20 03:01:07;;;;;;;17.67;3.00;;;;;;;6.12;100.00;97636.47;5009895;28;20128;-54
2022/02/20 03:03:33;;;;;;;15.55;2.90;;;;;;;6.28;100.00;97634.31;5011460;28;20116;-55
2022/02/20 03:05:59;;;;;;;13.90;2.65;;;;;;;5.76;100.00;97634.03;5009329;28;20045;-56
2022/02/20 03:08:25;;;;;;;16.83;2.90;;;;;;;6.08;100.00;97629.72;5013664;28;20085;-56
2022/02/20 03:10:51;;;;;;;15.18;2.70;;;;;;;6.15;100.00;97629.47;5011366;28;20250;-57
2022/02/20 03:13:17;;;;;;;10.75;2.40;;;;;;;5.64;100.00;97652.47;5008263;28;20914;-54
2022/02/20 03:15:42;;;;;;;13.88;2.55;;;;;;;5.95;100.00;97642.13;5009291;28;20459;-55
2022/02/20 03:18:07;;;;;;;11.63;2.25;;;;;;;6.02;100.00;97653.19;5010495;28;20029;-54
2022/02/20 03:20:33;;;;;;;11.95;2.58;;;;;;;6.21;100.00;97659.53;5011563;28;20416;-54
2022/02/20 03:22:58;;;;;;;13.65;2.60;;;;;;;5.57;100.00;97662.16;5009090;28;20116;-53
2022/02/20 03:25:23;;;;;;;13.43;2.40;;;;;;;5.87;100.00;97637.16;5009463;28;20038;-53
2022/02/20 03:27:49;;;;;;;14.60;2.78;;;;;;;6.05;100.00;97646.19;5010510;28;20028;-56
2022/02/20 03:30:14;;;;;;;12.40;2.50;;;;;;;6.01;100.00;97660.13;5013526;28;20043;-54
2022/02/20 03:32:39;;;;;;;14.80;2.83;;;;;;;5.70;100.00;97663.50;5013892;28;20450;-53
2022/02/20 03:35:05;;;;;;;15.45;2.90;;;;;;;6.11;100.00;97663.28;5009903;28;20061;-53
2022/02/20 03:37:31;;;;;;;13.35;2.40;;;;;;;6.17;100.00;97666.53;5010014;28;20076;-58
2022/02/20 03:39:57;;;;;;;13.85;2.53;;;;;;;6.23;100.00;97668.13;5009320;28;20029;-56
2022/02/20 03:42:22;;;;;;;10.98;2.25;;;;;;;6.28;100.00;97671.41;5009899;28;20034;-56
2022/02/20 03:44:48;;;;;;;18.30;2.95;;;;;;;6.14;100.00;97674.41;5008117;28;20030;-56
2022/02/20 03:47:13;;;;;;;12.32;2.33;;;;;;;5.83;100.00;97679.56;5010779;28;20030;-56
2022/02/20 03:49:39;;;;;;;14.18;2.65;;;;;;;6.20;100.00;97667.38;5011228;28;20061;-53
2022/02/20 03:52:04;;;;;;;15.13;2.55;;;;;;;6.19;100.00;97674.25;4997003;28;20062;-56
2022/02/20 03:54:30;;;;;;;14.13;2.75;;;;;;;6.31;100.00;97673.91;5012389;28;20157;-56
2022/02/20 03:56:55;;;;;;;12.60;2.17;;;;;;;6.10;100.00;97675.41;5011623;28;20054;-54
2022/02/20 03:59:20;;;;;;;14.35;2.53;;;;;;;6.31;100.00;97673.06;5012239;28;20037;-53
2022/02/20 04:01:46;;;;;;;15.00;2.80;;;;;;;6.67;100.00;97663.38;5009353;28;20136;-55
2022/02/20 04:04:11;;;;;;;16.15;2.78;;;;;;;6.12;100.00;97670.16;5010591;28;20044;-55
2022/02/20 04:06:37;;;;;;;20.50;3.50;;;;;;;6.41;100.00;97674.50;5010707;28;20412;-53
2022/02/20 04:09:02;;;;;;;17.15;2.92;;;;;;;6.23;100.00;97683.66;5008432;28;20057;-54
2022/02/20 04:11:28;;;;;;;13.02;2.78;;;;;;;6.54;100.00;97681.03;5008671;28;20119;-55
2022/02/20 04:13:53;;;;;;;12.35;2.60;;;;;;;6.45;100.00;97680.44;5007663;28;20021;-55
2022/02/20 04:16:18;;;;;;;12.57;2.38;;;;;;;6.21;100.00;97680.25;5009046;28;20037;-53
2022/02/20 04:18:44;;;;;;;16.52;2.67;;;;;;;6.39;100.00;97688.38;5010169;28;20396;-54
2022/02/20 04:21:09;;;;;;;14.80;2.90;;;;;;;6.62;100.00;97701.53;5008910;28;20037;-54
2022/02/20 04:23:34;;;;;;;15.02;2.83;;;;;;;6.68;100.00;97706.50;5006594;28;20029;-54
2022/02/20 04:26:03;;;;;;;12.48;2.70;;;;;;;6.78;100.00;97708.81;5008606;28;20048;-54
2022/02/20 04:28:32;;;;;;;18.40;2.95;;;;;;;6.35;100.00;97719.56;5011797;28;20021;-54
2022/02/20 04:30:57;;;;;;;15.70;2.63;;;;;;;6.47;100.00;97725.28;5009486;28;20029;-53
2022/02/20 04:33:23;;;;;;;12.13;2.35;;;;;;;6.26;100.00;97726.75;5010274;28;20036;-54
2022/02/20 04:35:49;;;;;;;11.55;2.45;;;;;;;6.71;100.00;97734.94;5007724;28;20664;-55
2022/02/20 04:38:14;;;;;;;18.95;3.05;;;;;;;7.16;100.00;97743.09;5009540;28;20040;-54
2022/02/20 04:40:40;;;;;;;14.70;2.80;;;;;;;6.92;100.00;97740.38;5007536;28;20672;-55
2022/02/20 04:43:05;;;;;;;16.35;3.13;;;;;;;7.22;100.00;97735.13;5006871;28;20061;-55
2022/02/20 04:45:30;;;;;;;14.90;2.63;;;;;;;7.39;100.00;97740.63;5009341;28;20030;-54
2022/02/20 04:47:55;;;;;;;11.30;2.40;;;;;;;7.19;100.00;97733.47;5010420;28;20091;-56
2022/02/20 04:50:21;;;;;;;10.82;2.28;;;;;;;7.12;100.00;97721.59;5009036;28;20792;-56
2022/02/20 04:52:46;;;;;;;12.60;2.50;;;;;;;7.38;100.00;97727.72;5008310;28;20038;-55
2022/02/20 04:55:12;;;;;;;14.02;2.45;;;;;;;7.54;100.00;97739.28;5012643;28;20895;-55
2022/02/20 04:57:39;;;;;;;11.00;2.25;;;;;;;7.01;100.00;97734.91;5009706;28;20028;-54
2022/02/20 05:00:06;;;;;;;14.45;2.83;;;;;;;7.08;100.00;97741.59;5009458;28;20056;-55
2022/02/20 05:02:31;;;;;;;13.02;2.65;;;;;;;6.95;100.00;97735.09;5006869;28;20041;-54
2022/02/20 05:04:57;;;;;;;12.48;2.60;;;;;;;7.62;100.00;97736.44;5008638;28;20668;-55
2022/02/20 05:07:22;;;;;;;15.00;2.88;;;;;;;7.95;100.00;97743.97;5009863;28;20037;-55
2022/02/20 05:09:48;;;;;;;12.00;2.55;;;;;;;7.36;100.00;97740.72;5009718;28;20026;-53
2022/02/20 05:12:13;;;;;;;11.98;2.40;;;;;;;7.57;100.00;97751.28;5008209;28;20037;-54
2022/02/20 05:14:38;;;;;;;13.02;2.95;;;;;;;7.56;100.00;97739.25;5007961;28;20029;-53
2022/02/20 05:17:04;;;;;;;14.77;2.67;;;;;;;7.89;100.00;97755.44;5005355;28;20121;-53
2022/02/20 05:19:29;;;;;;;13.20;2.50;;;;;;;7.47;100.00;97754.19;5008288;28;20089;-55
2022/02/20 05:21:55;;;;;;;12.80;2.58;;;;;;;7.33;100.00;97752.06;5008829;28;20030;-55
2022/02/20 05:24:20;;;;;;;12.90;2.30;;;;;;;7.34;100.00;97752.91;5007279;28;20045;-54
2022/02/20 05:26:45;;;;;;;14.70;2.53;;;;;;;7.55;100.00;97759.13;5010275;28;20551;-55
2022/02/20 05:29:11;;;;;;;11.88;2.47;;;;;;;8.05;100.00;97743.59;5008534;28;20040;-55
2022/02/20 05:31:36;;;;;;;11.73;2.72;;;;;;;7.42;100.00;97748.28;5008068;28;20270;-53
2022/02/20 05:34:02;;;;;;;11.10;2.45;;;;;;;7.38;100.00;97757.09;5010783;28;20139;-55
2022/02/20 05:36:27;;;;;;;10.20;2.38;;;;;;;7.55;100.00;97756.53;5008712;28;20038;-54
2022/02/20 05:38:53;;;;;;;15.07;2.90;;;;;;;7.40;100.00;97752.69;5007524;28;20085;-56
2022/02/20 05:41:20;;;;;;;13.55;2.90;;;;;;;7.63;100.00;97764.09;5008286;28;20735;-55
2022/02/20 05:43:45;;;;;;;16.08;3.05;;;;;;;7.43;100.00;97768.19;5005173;28;20026;-54
2022/02/20 05:46:10;;;;;;;18.50;2.88;;;;;;;7.29;100.00;97760.81;5003267;28;20038;-55
2022/02/20 05:48:36;;;;;;;12.60;2.67;;;;;;;7.24;100.00;97756.66;5005809;28;20473;-54
2022/02/20 05:51:02;;;;;;;13.43;2.88;;;;;;;7.75;100.00;97768.84;5006754;28;20080;-54
2022/02/20 05:53:28;;;;;;;13.02;2.65;;;;;;;8.13;100.00;97768.47;5008587;28;20048;-54
2022/02/20 05:55:53;;;;;;;14.80;2.85;;;;;;;8.05;100.00;97776.50;5008170;28;20493;-54
2022/02/20 05:58:18;;;;;;;14.05;2.55;;;;;;;7.31;100.00;97768.56;5009426;28;20183;-57
2022/02/20 06:00:44;;;;;;;13.63;2.90;;;;;;;7.82;100.00;97774.72;5009028;28;20046;-54
2022/02/20 06:03:09;;;;;;;14.77;2.92;;;;;;;7.14;100.00;97788.09;5008025;28;20026;-57
2022/02/20 06:05:35;;;;;;;10.68;2.20;;;;;;;7.49;100.00;97783.53;5007893;28;20124;-57
2022/02/20 06:08:00;;;;;;;13.30;2.55;;;;;;;7.18;100.00;97804.41;5010200;28;20026;-57
2022/02/20 06:10:25;;;;;;;10.60;2.55;;;;;;;7.55;100.00;97812.78;5008488;28;20065;-56
2022/02/20 06:12:52;;;;;;;12.18;2.45;;;;;;;7.14;100.00;97815.78;5006422;28;20215;-55
2022/02/20 06:15:18;;;;;;;16.13;2.58;;;;;;;7.07;100.00;97822.88;5005818;28;20825;-56
2022/02/20 06:17:43;;;;;;;12.48;2.47;;;;;;;7.48;100.00;97823.38;5011156;28;20592;-55
2022/02/20 06:20:09;;;;;;;12.55;2.50;;;;;;;7.29;100.00;97817.06;5011315;28;20060;-56
2022/02/20 06:22:34;;;;;;;15.27;2.80;;;;;;;7.23;100.00;97823.28;5013979;28;20500;-55
2022/02/20 06:25:00;;;;;;;17.98;2.50;;;;;;;7.80;100.00;97829.28;5012206;28;20048;-55
2022/02/20 06:27:25;;;;;;;14.98;2.63;;;;;;;7.61;100.00;97820.38;5009404;28;20038;-55
2022/02/20 06:29:50;;;;;;;10.93;2.45;;;;;;;7.61;100.00;97818.66;5009633;28;20781;-55
2022/02/20 06:32:16;;;;;;;18.40;3.03;;;;;;;7.55;100.00;97818.81;5011575;28;20042;-56
2022/02/20 06:34:41;;;;;;;13.00;2.60;;;;;;;6.85;100.00;97814.03;5010197;28;20056;-55
2022/02/20 06:37:06;;;;;;;10.00;2.33;;;;;;;7.37;100.00;97815.09;5012355;28;20040;-52
2022/02/20 06:39:32;;;;;;;13.77;2.42;;;;;;;7.57;100.00;97811.84;5010590;28;20381;-55
2022/02/20 06:41:58;;;;;;;14.02;2.83;;;;;;;7.64;100.00;97822.88;5012070;28;20755;-56
2022/02/20 06:44:23;;;;;;;10.88;2.22;;;;;;;7.29;100.00;97824.84;5009448;28;20562;-55
2022/02/20 06:46:48;;;;;;;12.75;2.30;;;;;;;7.53;100.00;97826.69;5009510;28;20038;-57
2022/02/20 06:49:14;;;;;;;12.50;2.70;;;;;;;7.51;100.00;97832.81;5010395;28;20112;-55
2022/02/20 06:51:39;;;;;;;14.27;2.80;;;;;;;7.59;100.00;97840.34;5012384;28;20488;-55
2022/02/20 06:54:04;;;;;;;12.73;2.67;;;;;;;7.45;100.00;97843.38;5011361;28;20571;-57
2022/02/20 06:56:30;;;;;;;14.27;2.63;;;;;;;7.45;100.00;97843.38;5010673;28;20037;-54
2022/02/20 06:58:56;;;;;;;12.27;2.88;;;;;;;7.49;100.00;97853.59;5010945;28;20021;-53
2022/02/20 07:01:22;;;;;;;8.90;2.30;;;;;;;7.28;100.00;97856.88;5011720;28;20041;-53
2022/02/20 07:03:47;;;;;;;13.77;2.95;;;;;;;7.56;100.00;97858.63;5013849;28;20030;-54
2022/02/20 07:06:13;;;;;;;13.55;2.63;;;;;;;7.90;100.00;97866.16;5013615;28;20046;-58
2022/02/20 07:08:38;;;;;;;13.23;2.83;;;;;;;7.32;100.00;97861.06;5012237;28;20079;-53
2022/02/20 07:11:03;;;;;;;12.15;2.78;;;;;;;7.71;100.00;97863.31;5009804;28;20655;-53
2022/02/20 07:13:29;;;;;;;14.88;2.95;;;;;;;7.68;100.00;97864.28;5026058;28;20022;-56
2022/02/20 07:15:54;;;;;;;15.98;3.20;;;;;;;8.01;100.00;97864.06;5009148;28;20047;-54
2022/02/20 07:18:21;;;;;;;14.45;3.13;;;;;;;7.80;100.00;97870.81;5012894;28;20025;-54
2022/02/20 07:20:46;;;;;;;16.75;3.38;;;;;;;7.56;100.00;97876.78;5009796;28;20107;-53
2022/02/20 07:23:12;;;;;;;10.95;2.72;;;;;;;7.52;100.00;97866.50;5011383;28;20033;-53
2022/02/20 07:25:37;;;;;;;12.05;2.80;;;;;;;7.61;100.00;97865.38;5011525;28;20054;-53
2022/02/20 07:28:03;;;;;;;19.98;3.55;;;;;;;7.32;100.00;97871.44;5011044;28;20472;-53
2022/02/20 07:30:29;;;;;;;12.30;3.10;;;;;;;7.83;100.00;97870.75;5011402;28;20045;-53
2022/02/20 07:33:08;;;;;;;14.13;3.05;;;;;;;7.43;100.00;97871.97;5012237;28;20037;-54
2022/02/20 07:35:37;;;;;;;14.15;2.85;;;;;;;7.56;100.00;97876.78;5012261;28;20381;-55
2022/02/20 07:38:03;;;;;;;11.45;2.60;;;;;;;7.95;100.00;97881.63;5010385;28;20028;-54
2022/02/20 07:40:29;;;;;;;13.20;2.63;;;;;;;7.92;100.00;97874.75;5008781;28;20030;-54
2022/02/20 07:42:56;;;;;;;11.70;2.67;;;;;;;7.74;100.00;97855.44;5012114;28;20033;-53
2022/02/20 07:45:23;;;;;;;13.25;3.03;;;;;;;8.01;100.00;97873.63;5009891;28;20045;-54
2022/02/20 07:47:53;;;;;;;15.25;2.80;;;;;;;8.16;100.00;97874.84;5011275;28;20025;-54
2022/02/20 07:50:24;;;;;;;11.18;2.50;;;;;;;7.70;100.00;97867.69;5012012;28;20513;-55
2022/02/20 07:52:50;;;;;;;12.63;2.70;;;;;;;8.25;100.00;97872.81;5009024;28;20117;-55
2022/02/20 07:55:16;;;;;;;13.00;3.00;;;;;;;7.58;100.00;97869.81;5011386;28;20037;-55
2022/02/20 07:57:45;;;;;;;12.65;2.53;;;;;;;8.77;100.00;97867.59;5009358;28;20025;-56
2022/02/20 08:00:13;;;;;;;11.15;2.53;;;;;;;7.73;100.00;97864.97;5010530;28;20039;-54
2022/02/20 08:02:38;;;;;;;15.73;3.20;;;;;;;7.90;100.00;97866.16;5009724;28;20048;-55
2022/02/20 08:05:04;;;;;;;9.73;2.22;;;;;;;8.14;100.00;97874.91;5009372;28;20078;-54
2022/02/20 08:07:30;;;;;;;14.55;2.80;;;;;;;7.82;100.00;97874.22;5010814;28;20539;-55
2022/02/20 08:09:55;;;;;;;12.15;2.50;;;;;;;8.17;100.00;97874.81;5008519;28;20091;-58
2022/02/20 08:12:20;;;;;;;12.52;2.53;;;;;;;7.95;100.00;97874.66;5011873;28;20034;-55
2022/02/20 08:14:46;;;;;;;15.88;3.13;;;;;;;8.35;100.00;97868.16;5010422;28;20026;-55
2022/02/20 08:17:11;;;;;;;12.85;2.50;;;;;;;8.63;100.00;97862.03;5010616;28;20048;-54
2022/02/20 08:19:36;;;;;;;10.90;2.72;;;;;;;8.40;100.00;97865.38;5012598;28;20064;-55
2022/02/20 08:22:02;;;;;;;12.02;2.70;;;;;;;9.09;100.00;97864.72;5011379;28;20117;-55
2022/02/20 08:24:27;;;;;;;11.02;2.47;;;;;;;8.44;100.00;97877.44;5011069;28;20029;-55
2022/02/20 08:26:53;;;;;;;12.25;2.45;;;;;;;8.13;100.00;97868.03;5009695;28;20072;-55
2022/02/20 08:29:21;;;;;;;15.75;3.10;;;;;;;8.94;100.00;97873.94;5009384;28;20176;-54
2022/02/20 08:31:50;;;;;;;9.43;2.25;;;;;;;8.93;100.00;97867.88;5016378;28;20468;-53
2022/02/20 08:34:16;;;;;;;13.55;2.70;;;;;;;9.15;100.00;97869.69;5010973;28;20133;-54
2022/02/20 08:36:41;;;;;;;9.77;2.50;;;;;;;8.42;100.00;97863.63;5009029;28;20172;-54
2022/02/20 08:39:06;;;;;;;11.60;2.70;;;;;;;9.12;100.00;97869.81;5010587;28;20037;-54
2022/02/20 08:41:32;;;;;;;11.55;2.45;;;;;;;8.52;100.00;97859.81;5007810;28;20049;-54
2022/02/20 08:43:58;;;;;;;14.75;3.58;;;;;;;8.76;100.00;97857.25;5011261;28;20933;-55
2022/02/20 08:46:23;;;;;;;12.27;2.80;;;;;;;8.81;100.00;97869.16;5010052;28;20492;-56
2022/02/20 08:48:48;;;;;;;10.63;2.70;;;;;;;8.61;100.00;97869.88;5011145;28;20105;-56
2022/02/20 08:51:15;;;;;;;13.27;2.65;;;;;;;8.87;100.00;97870.69;5010044;28;20037;-55
2022/02/20 08:53:40;;;;;;;13.82;2.90;;;;;;;8.37;100.00;97870.72;5009162;28;20068;-54
2022/02/20 08:56:07;;;;;;;8.43;2.25;;;;;;;9.03;100.00;97866.63;5006779;28;20565;-55
2022/02/20 08:58:33;;;;;;;14.93;2.65;;;;;;;9.03;100.00;97871.84;5008296;28;20026;-55
2022/02/20 09:00:58;;;;;;;13.65;2.67;;;;;;;9.02;100.00;97870.16;5008490;28;20092;-54
2022/02/20 09:03:24;;;;;;;14.40;3.15;;;;;;;9.18;100.00;97885.19;5009246;28;20025;-54
2022/02/20 09:05:49;;;;;;;10.85;2.72;;;;;;;8.81;100.00;97871.78;5005784;28;20467;-53
2022/02/20 09:08:15;;;;;;;9.85;2.25;;;;;;;9.17;100.00;97878.28;5010655;28;20116;-55
2022/02/20 09:10:40;;;;;;;12.05;2.78;;;;;;;9.20;100.00;97883.38;5010158;28;20030;-53
2022/02/20 09:13:06;;;;;;;9.85;2.15;;;;;;;8.48;100.00;97881.63;5010401;28;20037;-54
2022/02/20 09:15:32;;;;;;;17.48;3.08;;;;;;;8.98;100.00;97875.53;5009234;28;20037;-55
2022/02/20 09:17:57;;;;;;;10.43;2.30;;;;;;;8.91;100.00;97877.47;5007445;28;20029;-55
2022/02/20 09:20:25;;;;;;;11.18;2.42;;;;;;;8.91;100.00;97887.88;5006792;28;20049;-54
2022/02/20 09:22:51;;;;;;;10.27;2.42;;;;;;;9.01;100.00;97881.47;5009613;28;20778;-55
2022/02/20 09:25:17;;;;;;;12.60;2.85;;;;;;;9.25;100.00;97887.50;5009995;28;20071;-53
2022/02/20 09:27:42;;;;;;;11.02;2.78;;;;;;;9.09;100.00;97890.75;5005256;28;20415;-55
2022/02/20 09:30:08;;;;;;;10.13;2.42;;;;;;;8.84;100.00;97886.41;5010769;28;20195;-55
2022/02/20 09:32:34;;;;;;;11.77;2.45;;;;;;;8.88;100.00;97893.22;5008632;28;20041;-57
2022/02/20 09:35:00;;;;;;;14.45;2.70;;;;;;;8.96;100.00;97896.38;5007843;28;20037;-54
2022/02/20 09:37:25;;;;;;;11.77;2.08;;;;;;;8.54;100.00;97886.59;5008962;28;20037;-56
2022/02/20 09:39:51;;;;;;;13.38;2.58;;;;;;;8.74;100.00;97885.91;5008133;28;20053;-55
2022/02/20 09:42:16;;;;;;;9.82;2.42;;;;;;;8.79;100.00;97885.75;5012184;28;20228;-54
2022/02/20 09:44:44;;;;;;;13.52;2.63;;;;;;;8.91;100.00;97887.88;5008353;28;20033;-54
2022/02/20 09:47:11;;;;;;;16.65;2.60;;;;;;;8.77;100.00;97875.41;5008048;28;20037;-55
2022/02/20 09:49:37;;;;;;;14.27;2.95;;;;;;;8.99;100.00;97870.25;5009188;28;20018;-56
2022/02/20 09:52:03;;;;;;;11.30;2.60;;;;;;;8.81;100.00;97876.13;5010770;28;20025;-54
2022/02/20 09:54:29;;;;;;;12.38;2.55;;;;;;;9.02;100.00;97870.16;5009635;28;20033;-55
2022/02/20 09:56:55;;;;;;;13.60;2.80;;;;;;;8.94;100.00;97864.38;5008462;28;20127;-54
2022/02/20 09:59:21;;;;;;;12.25;2.28;;;;;;;8.82;100.00;97865.69;5013308;28;20030;-55
2022/02/20 10:02:03;;;;;;;10.05;2.20;;;;;;;8.80;100.00;97862.25;5013293;28;20036;-54
2022/02/20 10:04:43;;;;;;;11.52;2.40;;;;;;;11.11;100.00;97865.16;5024264;28;20037;-58
2022/02/20 10:07:24;;;;;;;12.40;2.72;;;;;;;14.28;100.00;97843.59;5009488;28;20050;-54
2022/02/20 10:09:50;;;;;;;7.53;1.90;;;;;;;16.28;100.00;97840.81;5012004;28;20116;-54
2022/02/20 10:12:24;;;;;;;9.45;2.50;;;;;;;16.08;100.00;97836.88;5010198;28;20053;-54
2022/02/20 10:14:49;;;;;;;10.73;2.53;;;;;;;16.09;100.00;97828.06;5010571;28;20400;-54
2022/02/20 10:17:17;;;;;;;9.30;2.40;;;;;;;15.32;100.00;97827.72;5014247;28;20507;-55
2022/02/20 10:19:56;;;;;;;6.03;1.80;;;;;;;16.14;100.00;97820.72;5021498;28;20124;-57
2022/02/20 10:22:34;;;;;;;9.20;2.22;;;;;;;15.85;100.00;97823.47;5024599;28;20672;-57
2022/02/20 10:25:11;;;;;;;12.50;2.45;;;;;;;15.77;100.00;97815.25;5010116;28;20025;-55
2022/02/20 10:27:47;;;;;;;6.43;1.80;;;;;;;15.22;94.37;97811.69;5007676;28;20041;-54
2022/02/20 10:30:15;;;;;;;7.22;2.00;;;;;;;12.07;99.78;97819.69;5011835;28;20989;-54
2022/02/20 10:32:41;;;;;;;6.38;1.85;;;;;;;12.19;100.00;97828.72;5012298;28;20059;-54
2022/02/20 10:35:07;;;;;;;4.82;1.58;;;;;;;11.31;100.00;97827.69;5012308;28;20037;-55
2022/02/20 10:37:33;;;;;;;6.65;1.65;;;;;;;10.95;100.00;97833.66;5012887;28;20088;-56
2022/02/20 10:39:58;;;;;;;9.50;2.10;;;;;;;11.49;100.00;97828.59;5012178;28;20030;-56
2022/02/20 10:42:26;;;;;;;7.38;2.13;;;;;;;10.49;100.00;97836.53;5013258;28;20129;-56
2022/02/20 10:45:01;;;;;;;9.07;2.35;;;;;;;9.89;100.00;97835.56;5012609;28;20822;-54
2022/02/20 10:47:32;;;;;;;9.52;2.22;;;;;;;10.59;100.00;97821.34;5010060;28;20049;-55
2022/02/20 10:50:25;;;;;;;8.00;2.08;;;;;;;10.70;100.00;97818.28;5013337;28;20140;-56
2022/02/20 10:53:14;;;;;;;9.55;1.92;;;;;;;11.04;100.00;97814.13;5012870;28;20148;-56
2022/02/20 10:55:43;;;;;;;11.48;2.40;;;;;;;10.58;100.00;97810.06;5009490;28;20081;-55
2022/02/20 10:58:13;;;;;;;7.97;1.98;;;;;;;10.77;100.00;97798.81;5009248;28;20037;-57
2022/02/20 11:00:49;;;;;;;9.60;2.08;;;;;;;11.11;100.00;97802.50;5011462;28;20148;-55
2022/02/20 11:03:15;;;;;;;8.88;2.15;;;;;;;10.14;100.00;97789.34;5011909;28;20083;-56
2022/02/20 11:05:41;;;;;;;9.57;2.33;;;;;;;10.61;100.00;97799.50;5009933;28;20095;-54
2022/02/20 11:08:08;;;;;;;7.32;1.83;;;;;;;10.59;100.00;97809.16;5010812;28;20239;-54
2022/02/20 11:10:36;;;;;;;10.30;2.30;;;;;;;10.72;100.00;97787.75;5011055;28;20040;-55
2022/02/20 11:13:02;;;;;;;9.95;2.33;;;;;;;9.76;100.00;97797.00;5009612;28;20088;-54
2022/02/20 11:15:28;;;;;;;10.82;2.35;;;;;;;10.79;100.00;97783.94;5010269;28;20041;-55
2022/02/20 11:17:55;;;;;;;10.10;2.15;;;;;;;11.00;100.00;97785.56;5010383;28;20034;-55
2022/02/20 11:20:22;;;;;;;8.93;1.90;;;;;;;11.09;100.00;97779.06;5011651;28;20067;-56
2022/02/20 11:22:52;;;;;;;8.25;1.80;;;;;;;9.91;100.00;97776.47;5009373;28;20022;-55